sensor_id;sensor_type;location;lat;lon;timestamp;temperature;humidity
820;DHT22;392;48.838;2.322;2023-05-01T00:01:00;16.20;27.20
820;DHT22;392;48.838;2.322;2023-05-01T00:03:30;16.10;27.20
820;DHT22;392;48.838;2.322;2023-05-01T00:05:59;16.10;27.30
820;DHT22;392;48.838;2.322;2023-05-01T00:08:26;16.10;27.50
820;DHT22;392;48.838;2.322;2023-05-01T00:10:54;16.10;27.50
820;DHT22;392;48.838;2.322;2023-05-01T00:13:22;16.10;27.60
820;DHT22;392;48.838;2.322;2023-05-01T00:15:50;16.00;27.70
820;DHT22;392;48.838;2.322;2023-05-01T00:18:18;16.00;27.80
820;DHT22;392;48.838;2.322;2023-05-01T00:20:46;16.00;27.90
820;DHT22;392;48.838;2.322;2023-05-01T00:23:13;16.00;28.00
820;DHT22;392;48.838;2.322;2023-05-01T00:25:40;15.90;28.00
820;DHT22;392;48.838;2.322;2023-05-01T00:28:08;15.90;28.10
820;DHT22;392;48.838;2.322;2023-05-01T00:30:37;15.90;28.20
820;DHT22;392;48.838;2.322;2023-05-01T00:33:05;15.90;28.30
820;DHT22;392;48.838;2.322;2023-05-01T00:35:33;15.80;28.30
820;DHT22;392;48.838;2.322;2023-05-01T00:38:00;15.80;28.40
820;DHT22;392;48.838;2.322;2023-05-01T00:40:28;15.80;28.60
820;DHT22;392;48.838;2.322;2023-05-01T00:42:55;15.80;28.70
820;DHT22;392;48.838;2.322;2023-05-01T00:45:23;15.80;28.70
820;DHT22;392;48.838;2.322;2023-05-01T00:47:52;15.80;28.70
820;DHT22;392;48.838;2.322;2023-05-01T00:50:19;15.80;28.70
820;DHT22;392;48.838;2.322;2023-05-01T00:52:47;15.80;28.80
820;DHT22;392;48.838;2.322;2023-05-01T00:55:15;15.80;28.80
820;DHT22;392;48.838;2.322;2023-05-01T00:57:42;15.70;28.70
820;DHT22;392;48.838;2.322;2023-05-01T01:00:11;15.70;28.90
820;DHT22;392;48.838;2.322;2023-05-01T01:02:39;15.70;29.00
820;DHT22;392;48.838;2.322;2023-05-01T01:05:08;15.70;29.10
820;DHT22;392;48.838;2.322;2023-05-01T01:07:40;15.70;29.20
820;DHT22;392;48.838;2.322;2023-05-01T01:10:19;15.70;29.20
820;DHT22;392;48.838;2.322;2023-05-01T01:13:00;15.70;29.20
820;DHT22;392;48.838;2.322;2023-05-01T01:15:35;15.70;29.20
820;DHT22;392;48.838;2.322;2023-05-01T01:18:16;15.60;29.20
820;DHT22;392;48.838;2.322;2023-05-01T01:20:54;15.60;29.10
820;DHT22;392;48.838;2.322;2023-05-01T01:24:02;15.60;29.20
820;DHT22;392;48.838;2.322;2023-05-01T01:27:12;15.60;29.30
820;DHT22;392;48.838;2.322;2023-05-01T01:30:26;15.50;29.10
820;DHT22;392;48.838;2.322;2023-05-01T01:33:21;15.50;29.20
820;DHT22;392;48.838;2.322;2023-05-01T01:36:03;15.50;29.50
820;DHT22;392;48.838;2.322;2023-05-01T01:38:39;15.50;29.70
820;DHT22;392;48.838;2.322;2023-05-01T01:41:12;15.40;29.90
820;DHT22;392;48.838;2.322;2023-05-01T01:43:44;15.40;30.10
820;DHT22;392;48.838;2.322;2023-05-01T01:46:14;15.40;30.30
820;DHT22;392;48.838;2.322;2023-05-01T01:48:47;15.40;30.50
820;DHT22;392;48.838;2.322;2023-05-01T01:51:18;15.40;30.70
820;DHT22;392;48.838;2.322;2023-05-01T01:53:50;15.30;30.90
820;DHT22;392;48.838;2.322;2023-05-01T01:56:21;15.30;31.30
820;DHT22;392;48.838;2.322;2023-05-01T01:58:53;15.20;31.50
820;DHT22;392;48.838;2.322;2023-05-01T02:01:21;15.10;31.80
820;DHT22;392;48.838;2.322;2023-05-01T02:03:50;15.10;32.20
820;DHT22;392;48.838;2.322;2023-05-01T02:06:21;15.00;32.40
820;DHT22;392;48.838;2.322;2023-05-01T02:08:50;14.90;32.90
820;DHT22;392;48.838;2.322;2023-05-01T02:11:19;14.80;33.20
820;DHT22;392;48.838;2.322;2023-05-01T02:13:48;14.80;33.50
820;DHT22;392;48.838;2.322;2023-05-01T02:16:17;14.70;33.90
820;DHT22;392;48.838;2.322;2023-05-01T02:18:45;14.70;34.10
820;DHT22;392;48.838;2.322;2023-05-01T02:21:13;14.60;34.60
820;DHT22;392;48.838;2.322;2023-05-01T02:23:43;14.60;34.80
820;DHT22;392;48.838;2.322;2023-05-01T02:26:15;14.60;34.70
820;DHT22;392;48.838;2.322;2023-05-01T02:28:42;14.60;34.60
820;DHT22;392;48.838;2.322;2023-05-01T02:31:10;14.60;34.60
820;DHT22;392;48.838;2.322;2023-05-01T02:33:37;14.60;34.60
820;DHT22;392;48.838;2.322;2023-05-01T02:36:05;14.60;34.70
820;DHT22;392;48.838;2.322;2023-05-01T02:38:33;14.60;34.80
820;DHT22;392;48.838;2.322;2023-05-01T02:41:02;14.60;34.80
820;DHT22;392;48.838;2.322;2023-05-01T02:43:31;14.50;34.70
820;DHT22;392;48.838;2.322;2023-05-01T02:46:00;14.50;34.90
820;DHT22;392;48.838;2.322;2023-05-01T02:48:31;14.40;34.90
820;DHT22;392;48.838;2.322;2023-05-01T02:50:59;14.40;35.00
820;DHT22;392;48.838;2.322;2023-05-01T02:53:29;14.30;35.20
820;DHT22;392;48.838;2.322;2023-05-01T02:56:06;14.30;35.50
820;DHT22;392;48.838;2.322;2023-05-01T02:58:34;14.40;35.50
820;DHT22;392;48.838;2.322;2023-05-01T03:01:01;14.30;35.40
820;DHT22;392;48.838;2.322;2023-05-01T03:03:29;14.30;35.70
820;DHT22;392;48.838;2.322;2023-05-01T03:05:56;14.30;35.80
820;DHT22;392;48.838;2.322;2023-05-01T03:08:24;14.30;35.90
820;DHT22;392;48.838;2.322;2023-05-01T03:10:51;14.30;35.80
820;DHT22;392;48.838;2.322;2023-05-01T03:13:19;14.20;35.90
820;DHT22;392;48.838;2.322;2023-05-01T03:15:47;14.20;36.10
820;DHT22;392;48.838;2.322;2023-05-01T03:18:15;14.20;36.30
820;DHT22;392;48.838;2.322;2023-05-01T03:20:50;14.10;36.30
820;DHT22;392;48.838;2.322;2023-05-01T03:23:18;14.10;36.70
820;DHT22;392;48.838;2.322;2023-05-01T03:25:46;14.00;37.30
820;DHT22;392;48.838;2.322;2023-05-01T03:28:13;13.90;37.50
820;DHT22;392;48.838;2.322;2023-05-01T03:30:43;13.90;38.40
820;DHT22;392;48.838;2.322;2023-05-01T03:33:10;13.80;39.20
820;DHT22;392;48.838;2.322;2023-05-01T03:35:38;13.80;40.10
820;DHT22;392;48.838;2.322;2023-05-01T03:38:05;13.70;41.00
820;DHT22;392;48.838;2.322;2023-05-01T03:41:05;13.70;42.40
820;DHT22;392;48.838;2.322;2023-05-01T03:44:04;13.60;42.80
820;DHT22;392;48.838;2.322;2023-05-01T03:46:37;13.60;43.90
820;DHT22;392;48.838;2.322;2023-05-01T03:49:06;13.50;44.70
820;DHT22;392;48.838;2.322;2023-05-01T03:51:41;13.50;45.60
820;DHT22;392;48.838;2.322;2023-05-01T03:54:08;13.50;46.40
820;DHT22;392;48.838;2.322;2023-05-01T03:56:51;13.40;46.80
820;DHT22;392;48.838;2.322;2023-05-01T03:59:19;13.40;47.20
820;DHT22;392;48.838;2.322;2023-05-01T04:01:48;13.40;47.80
820;DHT22;392;48.838;2.322;2023-05-01T04:04:16;13.40;48.40
820;DHT22;392;48.838;2.322;2023-05-01T04:06:48;13.40;48.70
820;DHT22;392;48.838;2.322;2023-05-01T04:09:15;13.40;48.90
820;DHT22;392;48.838;2.322;2023-05-01T04:11:43;13.40;49.10
820;DHT22;392;48.838;2.322;2023-05-01T04:14:11;13.40;49.30
820;DHT22;392;48.838;2.322;2023-05-01T04:16:39;13.30;49.50
820;DHT22;392;48.838;2.322;2023-05-01T04:19:08;13.30;50.00
820;DHT22;392;48.838;2.322;2023-05-01T04:21:40;13.30;50.30
820;DHT22;392;48.838;2.322;2023-05-01T04:24:08;13.40;50.50
820;DHT22;392;48.838;2.322;2023-05-01T04:26:35;13.40;50.40
820;DHT22;392;48.838;2.322;2023-05-01T04:29:03;13.40;50.50
820;DHT22;392;48.838;2.322;2023-05-01T04:31:31;13.30;50.60
820;DHT22;392;48.838;2.322;2023-05-01T04:33:59;13.30;51.00
820;DHT22;392;48.838;2.322;2023-05-01T04:36:28;13.30;51.40
820;DHT22;392;48.838;2.322;2023-05-01T04:38:58;13.30;51.40
820;DHT22;392;48.838;2.322;2023-05-01T04:41:26;13.30;51.90
820;DHT22;392;48.838;2.322;2023-05-01T04:43:54;13.40;51.90
820;DHT22;392;48.838;2.322;2023-05-01T04:46:21;13.40;51.90
820;DHT22;392;48.838;2.322;2023-05-01T04:48:49;13.40;51.90
820;DHT22;392;48.838;2.322;2023-05-01T04:51:16;13.40;51.50
820;DHT22;392;48.838;2.322;2023-05-01T04:53:46;13.40;51.80
820;DHT22;392;48.838;2.322;2023-05-01T04:56:22;13.40;51.90
820;DHT22;392;48.838;2.322;2023-05-01T04:58:54;13.40;51.90
820;DHT22;392;48.838;2.322;2023-05-01T05:01:24;13.40;51.90
820;DHT22;392;48.838;2.322;2023-05-01T05:03:51;13.40;51.90
820;DHT22;392;48.838;2.322;2023-05-01T05:06:19;13.40;51.90
820;DHT22;392;48.838;2.322;2023-05-01T05:08:47;13.40;51.90
820;DHT22;392;48.838;2.322;2023-05-01T05:11:16;13.40;52.00
820;DHT22;392;48.838;2.322;2023-05-01T05:13:59;13.40;52.00
820;DHT22;392;48.838;2.322;2023-05-01T05:16:26;13.40;51.90
820;DHT22;392;48.838;2.322;2023-05-01T05:18:54;13.50;52.00
820;DHT22;392;48.838;2.322;2023-05-01T05:21:24;13.50;52.00
820;DHT22;392;48.838;2.322;2023-05-01T05:23:57;13.50;51.60
820;DHT22;392;48.838;2.322;2023-05-01T05:26:26;13.60;51.20
820;DHT22;392;48.838;2.322;2023-05-01T05:28:56;13.60;51.20
820;DHT22;392;48.838;2.322;2023-05-01T05:31:24;13.60;50.60
820;DHT22;392;48.838;2.322;2023-05-01T05:33:51;13.70;50.20
820;DHT22;392;48.838;2.322;2023-05-01T05:36:19;13.70;50.30
820;DHT22;392;48.838;2.322;2023-05-01T05:38:47;13.70;50.10
820;DHT22;392;48.838;2.322;2023-05-01T05:41:18;13.70;49.60
820;DHT22;392;48.838;2.322;2023-05-01T05:43:48;13.70;49.40
820;DHT22;392;48.838;2.322;2023-05-01T05:46:15;13.70;49.50
820;DHT22;392;48.838;2.322;2023-05-01T05:48:42;13.70;48.80
820;DHT22;392;48.838;2.322;2023-05-01T05:51:10;13.70;49.20
820;DHT22;392;48.838;2.322;2023-05-01T05:53:37;13.70;49.70
820;DHT22;392;48.838;2.322;2023-05-01T05:56:06;13.70;48.50
820;DHT22;392;48.838;2.322;2023-05-01T05:58:35;13.70;48.30
820;DHT22;392;48.838;2.322;2023-05-01T06:01:03;13.80;48.20
820;DHT22;392;48.838;2.322;2023-05-01T06:03:32;13.80;48.20
820;DHT22;392;48.838;2.322;2023-05-01T06:06:01;13.90;48.20
820;DHT22;392;48.838;2.322;2023-05-01T06:08:28;14.00;47.60
820;DHT22;392;48.838;2.322;2023-05-01T06:10:55;14.00;47.10
820;DHT22;392;48.838;2.322;2023-05-01T06:13:23;14.00;46.40
820;DHT22;392;48.838;2.322;2023-05-01T06:15:53;13.90;46.40
820;DHT22;392;48.838;2.322;2023-05-01T06:18:20;13.80;47.40
820;DHT22;392;48.838;2.322;2023-05-01T06:20:48;13.80;48.20
820;DHT22;392;48.838;2.322;2023-05-01T06:23:16;13.80;48.60
820;DHT22;392;48.838;2.322;2023-05-01T06:26:01;13.90;48.60
820;DHT22;392;48.838;2.322;2023-05-01T06:28:29;13.90;48.70
820;DHT22;392;48.838;2.322;2023-05-01T06:30:58;13.90;47.90
820;DHT22;392;48.838;2.322;2023-05-01T06:33:26;13.90;47.90
820;DHT22;392;48.838;2.322;2023-05-01T06:36:04;13.90;49.00
820;DHT22;392;48.838;2.322;2023-05-01T06:38:31;13.80;48.00
820;DHT22;392;48.838;2.322;2023-05-01T06:40:59;13.70;48.60
820;DHT22;392;48.838;2.322;2023-05-01T06:43:26;13.70;48.90
820;DHT22;392;48.838;2.322;2023-05-01T06:45:55;13.70;49.60
820;DHT22;392;48.838;2.322;2023-05-01T06:48:24;13.70;50.80
820;DHT22;392;48.838;2.322;2023-05-01T06:50:51;14.00;51.50
820;DHT22;392;48.838;2.322;2023-05-01T06:53:18;14.60;48.70
820;DHT22;392;48.838;2.322;2023-05-01T06:55:46;15.20;44.20
820;DHT22;392;48.838;2.322;2023-05-01T06:58:13;15.70;40.80
820;DHT22;392;48.838;2.322;2023-05-01T07:00:40;16.10;38.80
820;DHT22;392;48.838;2.322;2023-05-01T07:03:08;16.60;35.30
820;DHT22;392;48.838;2.322;2023-05-01T07:05:36;17.00;33.40
820;DHT22;392;48.838;2.322;2023-05-01T07:08:05;17.50;31.60
820;DHT22;392;48.838;2.322;2023-05-01T07:10:34;17.80;29.80
820;DHT22;392;48.838;2.322;2023-05-01T07:13:01;18.20;28.70
820;DHT22;392;48.838;2.322;2023-05-01T07:15:29;18.30;27.70
820;DHT22;392;48.838;2.322;2023-05-01T07:17:56;18.30;27.40
820;DHT22;392;48.838;2.322;2023-05-01T07:20:23;18.40;27.10
820;DHT22;392;48.838;2.322;2023-05-01T07:22:52;18.50;26.90
820;DHT22;392;48.838;2.322;2023-05-01T07:25:19;18.60;26.10
820;DHT22;392;48.838;2.322;2023-05-01T07:27:47;18.70;26.30
820;DHT22;392;48.838;2.322;2023-05-01T07:30:14;18.90;25.90
820;DHT22;392;48.838;2.322;2023-05-01T07:32:41;19.40;25.00
820;DHT22;392;48.838;2.322;2023-05-01T07:35:09;19.90;24.50
820;DHT22;392;48.838;2.322;2023-05-01T07:37:36;20.40;22.80
820;DHT22;392;48.838;2.322;2023-05-01T07:40:06;20.40;22.20
820;DHT22;392;48.838;2.322;2023-05-01T07:42:33;20.20;22.10
820;DHT22;392;48.838;2.322;2023-05-01T07:45:01;19.90;22.80
820;DHT22;392;48.838;2.322;2023-05-01T07:47:28;19.60;23.80
820;DHT22;392;48.838;2.322;2023-05-01T07:49:56;19.60;23.80
820;DHT22;392;48.838;2.322;2023-05-01T07:52:23;19.90;23.10
820;DHT22;392;48.838;2.322;2023-05-01T07:54:50;19.70;23.20
820;DHT22;392;48.838;2.322;2023-05-01T07:57:19;19.20;23.70
820;DHT22;392;48.838;2.322;2023-05-01T07:59:52;18.70;25.00
820;DHT22;392;48.838;2.322;2023-05-01T08:02:21;18.20;26.00
820;DHT22;392;48.838;2.322;2023-05-01T08:04:48;17.80;26.70
820;DHT22;392;48.838;2.322;2023-05-01T08:07:15;17.30;28.00
820;DHT22;392;48.838;2.322;2023-05-01T08:09:43;16.80;29.30
820;DHT22;392;48.838;2.322;2023-05-01T08:12:10;16.50;30.60
820;DHT22;392;48.838;2.322;2023-05-01T08:14:38;16.40;31.70
820;DHT22;392;48.838;2.322;2023-05-01T08:17:06;16.50;32.00
820;DHT22;392;48.838;2.322;2023-05-01T08:19:33;16.60;31.30
820;DHT22;392;48.838;2.322;2023-05-01T08:22:01;16.50;31.30
820;DHT22;392;48.838;2.322;2023-05-01T08:24:28;16.50;31.60
820;DHT22;392;48.838;2.322;2023-05-01T08:26:56;16.40;32.30
820;DHT22;392;48.838;2.322;2023-05-01T08:29:23;16.50;32.70
820;DHT22;392;48.838;2.322;2023-05-01T08:31:52;16.50;31.50
820;DHT22;392;48.838;2.322;2023-05-01T08:34:19;16.50;31.40
820;DHT22;392;48.838;2.322;2023-05-01T08:36:47;16.50;31.80
820;DHT22;392;48.838;2.322;2023-05-01T08:39:14;16.40;32.30
820;DHT22;392;48.838;2.322;2023-05-01T08:41:45;16.50;32.70
820;DHT22;392;48.838;2.322;2023-05-01T08:44:13;16.60;32.70
820;DHT22;392;48.838;2.322;2023-05-01T08:46:46;16.70;32.50
820;DHT22;392;48.838;2.322;2023-05-01T08:49:16;16.90;31.90
820;DHT22;392;48.838;2.322;2023-05-01T08:51:45;16.90;31.40
820;DHT22;392;48.838;2.322;2023-05-01T08:54:13;16.90;31.80
820;DHT22;392;48.838;2.322;2023-05-01T08:56:42;16.80;32.00
820;DHT22;392;48.838;2.322;2023-05-01T08:59:10;16.60;32.90
820;DHT22;392;48.838;2.322;2023-05-01T09:01:41;16.50;34.10
820;DHT22;392;48.838;2.322;2023-05-01T09:04:09;16.40;34.50
820;DHT22;392;48.838;2.322;2023-05-01T09:06:39;16.40;34.70
820;DHT22;392;48.838;2.322;2023-05-01T09:09:09;16.30;35.40
820;DHT22;392;48.838;2.322;2023-05-01T09:11:37;16.30;35.30
820;DHT22;392;48.838;2.322;2023-05-01T09:14:04;16.30;35.90
820;DHT22;392;48.838;2.322;2023-05-01T09:16:33;16.30;36.20
820;DHT22;392;48.838;2.322;2023-05-01T09:19:01;16.20;36.70
820;DHT22;392;48.838;2.322;2023-05-01T09:21:28;16.20;36.70
820;DHT22;392;48.838;2.322;2023-05-01T09:23:58;16.10;37.30
820;DHT22;392;48.838;2.322;2023-05-01T09:26:26;16.00;37.90
820;DHT22;392;48.838;2.322;2023-05-01T09:28:54;15.90;38.50
820;DHT22;392;48.838;2.322;2023-05-01T09:31:24;15.90;38.80
820;DHT22;392;48.838;2.322;2023-05-01T09:33:54;15.90;39.40
820;DHT22;392;48.838;2.322;2023-05-01T09:36:23;15.80;39.30
820;DHT22;392;48.838;2.322;2023-05-01T09:38:51;15.80;39.30
820;DHT22;392;48.838;2.322;2023-05-01T09:41:20;15.80;40.10
820;DHT22;392;48.838;2.322;2023-05-01T09:43:52;15.90;40.40
820;DHT22;392;48.838;2.322;2023-05-01T09:46:21;16.00;39.90
820;DHT22;392;48.838;2.322;2023-05-01T09:48:54;16.10;39.60
820;DHT22;392;48.838;2.322;2023-05-01T09:51:25;16.30;38.60
820;DHT22;392;48.838;2.322;2023-05-01T09:53:54;16.50;37.50
820;DHT22;392;48.838;2.322;2023-05-01T09:56:24;16.60;36.90
820;DHT22;392;48.838;2.322;2023-05-01T09:58:53;16.90;37.00
820;DHT22;392;48.838;2.322;2023-05-01T10:01:36;17.20;34.20
820;DHT22;392;48.838;2.322;2023-05-01T10:04:04;17.30;33.40
820;DHT22;392;48.838;2.322;2023-05-01T10:06:32;17.20;33.80
820;DHT22;392;48.838;2.322;2023-05-01T10:08:59;17.10;34.00
820;DHT22;392;48.838;2.322;2023-05-01T10:11:28;17.10;34.50
820;DHT22;392;48.838;2.322;2023-05-01T10:14:05;17.10;34.60
820;DHT22;392;48.838;2.322;2023-05-01T10:16:35;17.00;34.70
820;DHT22;392;48.838;2.322;2023-05-01T10:19:04;16.80;35.10
820;DHT22;392;48.838;2.322;2023-05-01T10:21:32;16.70;35.80
820;DHT22;392;48.838;2.322;2023-05-01T10:24:01;16.40;37.20
820;DHT22;392;48.838;2.322;2023-05-01T10:26:32;16.30;38.20
820;DHT22;392;48.838;2.322;2023-05-01T10:29:00;16.20;39.20
820;DHT22;392;48.838;2.322;2023-05-01T10:31:28;16.10;39.70
820;DHT22;392;48.838;2.322;2023-05-01T10:33:58;16.10;40.70
820;DHT22;392;48.838;2.322;2023-05-01T10:36:31;16.20;41.50
820;DHT22;392;48.838;2.322;2023-05-01T10:39:02;16.40;41.30
820;DHT22;392;48.838;2.322;2023-05-01T10:42:02;16.60;41.10
820;DHT22;392;48.838;2.322;2023-05-01T10:44:30;16.90;39.90
820;DHT22;392;48.838;2.322;2023-05-01T10:46:59;17.40;38.10
820;DHT22;392;48.838;2.322;2023-05-01T10:50:07;17.80;36.00
820;DHT22;392;48.838;2.322;2023-05-01T10:55:43;18.10;33.40
820;DHT22;392;48.838;2.322;2023-05-01T10:58:13;18.10;33.30
820;DHT22;392;48.838;2.322;2023-05-01T11:01:32;18.10;33.20
820;DHT22;392;48.838;2.322;2023-05-01T11:04:01;18.00;33.10
820;DHT22;392;48.838;2.322;2023-05-01T11:06:30;17.90;33.70
820;DHT22;392;48.838;2.322;2023-05-01T11:08:58;17.90;33.60
820;DHT22;392;48.838;2.322;2023-05-01T11:11:45;18.00;33.50
820;DHT22;392;48.838;2.322;2023-05-01T11:14:17;18.30;33.00
820;DHT22;392;48.838;2.322;2023-05-01T11:16:45;18.60;31.50
820;DHT22;392;48.838;2.322;2023-05-01T11:19:45;19.00;30.60
820;DHT22;392;48.838;2.322;2023-05-01T11:22:15;19.60;28.60
820;DHT22;392;48.838;2.322;2023-05-01T11:24:44;20.10;27.30
820;DHT22;392;48.838;2.322;2023-05-01T11:27:13;20.30;26.50
820;DHT22;392;48.838;2.322;2023-05-01T11:29:44;20.60;26.30
820;DHT22;392;48.838;2.322;2023-05-01T11:32:18;21.10;24.90
820;DHT22;392;48.838;2.322;2023-05-01T11:34:49;21.30;24.00
820;DHT22;392;48.838;2.322;2023-05-01T11:37:17;21.20;23.50
820;DHT22;392;48.838;2.322;2023-05-01T11:39:49;21.20;23.30
820;DHT22;392;48.838;2.322;2023-05-01T11:42:19;21.50;23.60
820;DHT22;392;48.838;2.322;2023-05-01T11:45:06;22.30;22.20
820;DHT22;392;48.838;2.322;2023-05-01T11:47:36;23.60;19.50
820;DHT22;392;48.838;2.322;2023-05-01T11:50:05;24.50;18.20
820;DHT22;392;48.838;2.322;2023-05-01T11:52:44;25.60;15.90
820;DHT22;392;48.838;2.322;2023-05-01T11:55:14;26.70;13.80
820;DHT22;392;48.838;2.322;2023-05-01T11:57:46;27.20;12.60
820;DHT22;392;48.838;2.322;2023-05-01T12:00:25;26.70;12.40
820;DHT22;392;48.838;2.322;2023-05-01T12:02:59;25.60;13.50
820;DHT22;392;48.838;2.322;2023-05-01T12:05:29;24.50;14.80
820;DHT22;392;48.838;2.322;2023-05-01T12:08:11;23.50;16.40
820;DHT22;392;48.838;2.322;2023-05-01T12:10:40;22.40;18.10
820;DHT22;392;48.838;2.322;2023-05-01T12:13:10;21.70;19.50
820;DHT22;392;48.838;2.322;2023-05-01T12:15:41;21.10;20.50
820;DHT22;392;48.838;2.322;2023-05-01T12:18:11;20.80;21.70
820;DHT22;392;48.838;2.322;2023-05-01T12:20:39;20.30;23.50
820;DHT22;392;48.838;2.322;2023-05-01T12:23:11;19.70;26.90
820;DHT22;392;48.838;2.322;2023-05-01T12:25:41;19.00;29.10
820;DHT22;392;48.838;2.322;2023-05-01T12:28:11;18.50;34.40
820;DHT22;392;48.838;2.322;2023-05-01T12:30:42;18.00;36.60
820;DHT22;392;48.838;2.322;2023-05-01T12:33:12;17.60;37.60
820;DHT22;392;48.838;2.322;2023-05-01T12:35:41;17.40;39.20
820;DHT22;392;48.838;2.322;2023-05-01T12:38:14;17.20;39.60
820;DHT22;392;48.838;2.322;2023-05-01T12:40:51;17.10;39.20
820;DHT22;392;48.838;2.322;2023-05-01T12:43:20;16.90;38.80
820;DHT22;392;48.838;2.322;2023-05-01T12:45:52;16.80;40.30
820;DHT22;392;48.838;2.322;2023-05-01T12:48:20;16.80;41.30
820;DHT22;392;48.838;2.322;2023-05-01T12:50:47;16.80;41.90
820;DHT22;392;48.838;2.322;2023-05-01T12:53:19;16.70;44.10
820;DHT22;392;48.838;2.322;2023-05-01T12:55:49;16.70;46.00
820;DHT22;392;48.838;2.322;2023-05-01T12:58:19;16.70;47.60
820;DHT22;392;48.838;2.322;2023-05-01T13:00:48;16.70;50.80
820;DHT22;392;48.838;2.322;2023-05-01T13:03:22;16.60;52.30
820;DHT22;392;48.838;2.322;2023-05-01T13:05:55;16.70;53.70
820;DHT22;392;48.838;2.322;2023-05-01T13:08:25;17.00;56.00
820;DHT22;392;48.838;2.322;2023-05-01T13:10:54;17.50;55.30
820;DHT22;392;48.838;2.322;2023-05-01T13:13:26;17.80;49.90
820;DHT22;392;48.838;2.322;2023-05-01T13:16:05;18.00;47.90
820;DHT22;392;48.838;2.322;2023-05-01T13:18:43;18.10;46.50
820;DHT22;392;48.838;2.322;2023-05-01T13:21:13;18.00;43.90
820;DHT22;392;48.838;2.322;2023-05-01T13:23:42;17.90;46.20
820;DHT22;392;48.838;2.322;2023-05-01T13:26:24;17.70;45.30
820;DHT22;392;48.838;2.322;2023-05-01T13:28:52;17.60;44.50
820;DHT22;392;48.838;2.322;2023-05-01T13:31:20;17.50;46.20
820;DHT22;392;48.838;2.322;2023-05-01T13:33:51;17.40;48.90
820;DHT22;392;48.838;2.322;2023-05-01T13:36:19;17.30;49.20
820;DHT22;392;48.838;2.322;2023-05-01T13:38:48;17.20;48.00
820;DHT22;392;48.838;2.322;2023-05-01T13:41:20;17.20;48.80
820;DHT22;392;48.838;2.322;2023-05-01T13:43:50;17.20;48.00
820;DHT22;392;48.838;2.322;2023-05-01T13:46:20;17.30;46.60
820;DHT22;392;48.838;2.322;2023-05-01T13:48:49;17.70;46.10
820;DHT22;392;48.838;2.322;2023-05-01T13:51:20;18.20;41.10
820;DHT22;392;48.838;2.322;2023-05-01T13:53:49;18.70;38.10
820;DHT22;392;48.838;2.322;2023-05-01T13:56:17;18.90;35.50
820;DHT22;392;48.838;2.322;2023-05-01T13:58:46;19.00;33.20
820;DHT22;392;48.838;2.322;2023-05-01T14:01:15;19.10;33.90
820;DHT22;392;48.838;2.322;2023-05-01T14:03:43;19.10;32.50
820;DHT22;392;48.838;2.322;2023-05-01T14:06:14;19.20;31.40
820;DHT22;392;48.838;2.322;2023-05-01T14:08:42;19.20;28.70
820;DHT22;392;48.838;2.322;2023-05-01T14:11:11;19.10;28.90
820;DHT22;392;48.838;2.322;2023-05-01T14:13:39;19.00;29.00
820;DHT22;392;48.838;2.322;2023-05-01T14:16:08;19.10;29.80
820;DHT22;392;48.838;2.322;2023-05-01T14:18:43;19.10;29.90
820;DHT22;392;48.838;2.322;2023-05-01T14:21:13;19.10;30.50
820;DHT22;392;48.838;2.322;2023-05-01T14:23:41;19.10;30.00
820;DHT22;392;48.838;2.322;2023-05-01T14:26:10;19.20;29.40
820;DHT22;392;48.838;2.322;2023-05-01T14:28:40;19.10;28.60
820;DHT22;392;48.838;2.322;2023-05-01T14:31:14;19.20;28.90
820;DHT22;392;48.838;2.322;2023-05-01T14:33:42;19.20;28.80
820;DHT22;392;48.838;2.322;2023-05-01T14:36:12;19.20;27.70
820;DHT22;392;48.838;2.322;2023-05-01T14:38:40;19.20;27.70
820;DHT22;392;48.838;2.322;2023-05-01T14:41:11;19.20;27.70
820;DHT22;392;48.838;2.322;2023-05-01T14:43:40;19.10;26.80
820;DHT22;392;48.838;2.322;2023-05-01T14:46:11;19.10;26.40
820;DHT22;392;48.838;2.322;2023-05-01T14:48:39;18.90;25.80
820;DHT22;392;48.838;2.322;2023-05-01T14:51:09;18.80;26.30
820;DHT22;392;48.838;2.322;2023-05-01T14:53:39;18.70;26.60
820;DHT22;392;48.838;2.322;2023-05-01T14:56:09;18.40;26.70
820;DHT22;392;48.838;2.322;2023-05-01T14:58:36;18.30;27.00
820;DHT22;392;48.838;2.322;2023-05-01T15:01:03;18.30;27.00
820;DHT22;392;48.838;2.322;2023-05-01T15:03:33;18.40;26.80
820;DHT22;392;48.838;2.322;2023-05-01T15:06:05;18.30;27.20
820;DHT22;392;48.838;2.322;2023-05-01T15:08:33;18.40;26.80
820;DHT22;392;48.838;2.322;2023-05-01T15:11:02;18.40;26.30
820;DHT22;392;48.838;2.322;2023-05-01T15:13:30;18.40;25.80
820;DHT22;392;48.838;2.322;2023-05-01T15:15:57;18.40;25.90
820;DHT22;392;48.838;2.322;2023-05-01T15:18:25;18.40;26.00
820;DHT22;392;48.838;2.322;2023-05-01T15:20:52;18.50;25.90
820;DHT22;392;48.838;2.322;2023-05-01T15:23:20;18.60;26.00
820;DHT22;392;48.838;2.322;2023-05-01T15:25:47;18.80;25.70
820;DHT22;392;48.838;2.322;2023-05-01T15:28:16;18.80;24.80
820;DHT22;392;48.838;2.322;2023-05-01T15:30:45;18.80;23.70
820;DHT22;392;48.838;2.322;2023-05-01T15:33:13;18.70;24.10
820;DHT22;392;48.838;2.322;2023-05-01T15:35:40;18.70;24.10
820;DHT22;392;48.838;2.322;2023-05-01T15:38:08;18.60;24.30
820;DHT22;392;48.838;2.322;2023-05-01T15:40:35;18.50;24.10
820;DHT22;392;48.838;2.322;2023-05-01T15:43:03;18.50;24.20
820;DHT22;392;48.838;2.322;2023-05-01T15:45:32;18.50;24.50
820;DHT22;392;48.838;2.322;2023-05-01T15:47:59;18.70;23.80
820;DHT22;392;48.838;2.322;2023-05-01T15:50:27;18.70;23.20
820;DHT22;392;48.838;2.322;2023-05-01T15:52:56;18.60;23.10
820;DHT22;392;48.838;2.322;2023-05-01T15:55:23;18.60;23.20
820;DHT22;392;48.838;2.322;2023-05-01T15:57:50;18.50;23.00
820;DHT22;392;48.838;2.322;2023-05-01T16:00:18;18.50;21.70
820;DHT22;392;48.838;2.322;2023-05-01T16:02:47;18.50;21.40
820;DHT22;392;48.838;2.322;2023-05-01T16:05:18;18.50;21.30
820;DHT22;392;48.838;2.322;2023-05-01T16:07:53;18.50;21.60
820;DHT22;392;48.838;2.322;2023-05-01T16:10:21;18.50;22.00
820;DHT22;392;48.838;2.322;2023-05-01T16:12:51;18.40;22.20
820;DHT22;392;48.838;2.322;2023-05-01T16:15:19;18.20;21.90
820;DHT22;392;48.838;2.322;2023-05-01T16:17:49;18.20;22.20
820;DHT22;392;48.838;2.322;2023-05-01T16:20:19;18.20;22.40
820;DHT22;392;48.838;2.322;2023-05-01T16:22:47;18.20;22.80
820;DHT22;392;48.838;2.322;2023-05-01T16:25:14;18.10;22.70
820;DHT22;392;48.838;2.322;2023-05-01T16:27:42;18.00;22.80
820;DHT22;392;48.838;2.322;2023-05-01T16:30:11;18.00;23.30
820;DHT22;392;48.838;2.322;2023-05-01T16:32:40;18.00;23.30
820;DHT22;392;48.838;2.322;2023-05-01T16:35:10;18.00;22.90
820;DHT22;392;48.838;2.322;2023-05-01T16:37:42;18.00;22.60
820;DHT22;392;48.838;2.322;2023-05-01T16:40:14;17.80;22.70
820;DHT22;392;48.838;2.322;2023-05-01T16:42:42;17.90;23.20
820;DHT22;392;48.838;2.322;2023-05-01T16:45:16;17.80;22.90
820;DHT22;392;48.838;2.322;2023-05-01T16:47:44;17.90;22.90
820;DHT22;392;48.838;2.322;2023-05-01T16:50:12;17.90;23.10
820;DHT22;392;48.838;2.322;2023-05-01T16:52:41;17.90;23.10
820;DHT22;392;48.838;2.322;2023-05-01T16:55:08;18.00;23.20
820;DHT22;392;48.838;2.322;2023-05-01T16:57:35;18.00;23.10